Time;durP1;ratioP1;P1;durP2;ratioP2;P2;SDS_P1;SDS_P2;PMS_P1;PMS_P2;Temp;Humidity;BMP_temperature;BMP_pressure;BME280_temperature;BME280_humidity;BME280_pressure;Samples;Min_cycle;Max_cycle;Signal;HPM_P1;HPM_P2
2022/02/04 00:06:27;;;;;;;3.33;1.25;;;23.80;58.60;;;;;;4113494;28;20076;-72
2022/02/04 00:24:02;;;;;;;2.55;1.08;;;23.80;58.00;;;;;;4113167;28;20494;-72
2022/02/04 00:26:33;;;;;;;4.35;0.90;;;23.80;58.00;;;;;;4097374;28;20046;-75
2022/02/04 00:29:14;;;;;;;2.45;0.70;;;23.70;58.00;;;;;;4114823;28;20048;-72
2022/02/04 00:31:45;;;;;;;4.35;1.30;;;23.80;58.10;;;;;;4114113;28;20044;-74
2022/02/04 00:34:13;;;;;;;2.63;1.00;;;23.70;58.00;;;;;;4102578;28;20095;-78
2022/02/04 00:39:09;;;;;;;2.58;0.95;;;23.70;58.00;;;;;;4118783;28;20041;-72
2022/02/04 00:41:35;;;;;;;2.88;0.90;;;23.70;58.10;;;;;;4114004;28;20110;-70
2022/02/04 00:43:59;;;;;;;5.20;1.25;;;23.70;58.20;;;;;;4105329;28;20758;-72
2022/02/04 00:46:29;;;;;;;5.50;1.10;;;23.70;58.30;;;;;;4113714;28;20041;-72
2022/02/04 00:51:50;;;;;;;2.97;0.93;;;23.70;58.60;;;;;;4115807;28;20052;-71
2022/02/04 00:54:21;;;;;;;3.70;1.10;;;23.70;58.70;;;;;;4102343;28;20618;-72
2022/02/04 01:26:04;;;;;;;4.38;1.08;;;23.70;59.40;;;;;;4100180;28;20065;-70
2022/02/04 01:28:27;;;;;;;3.67;1.10;;;23.70;59.40;;;;;;4096958;28;20049;-72
2022/02/04 01:30:50;;;;;;;2.95;1.35;;;23.70;60.10;;;;;;4098665;28;20086;-72
2022/02/04 01:33:13;;;;;;;3.97;0.98;;;23.80;59.60;;;;;;4095981;28;20479;-72
2022/02/04 01:35:39;;;;;;;6.55;1.67;;;23.80;59.60;;;;;;4101126;28;20103;-70
2022/02/04 01:38:01;;;;;;;3.55;1.17;;;23.70;59.70;;;;;;4095608;28;20666;-71
2022/02/04 01:40:24;;;;;;;4.18;1.08;;;23.80;59.60;;;;;;4096241;28;20033;-70
2022/02/04 01:42:46;;;;;;;3.08;1.10;;;23.70;59.60;;;;;;4099095;28;20104;-73
2022/02/04 01:45:09;;;;;;;3.20;1.10;;;23.70;59.50;;;;;;4093994;28;20049;-76
2022/02/04 01:47:31;;;;;;;4.63;1.42;;;23.70;59.50;;;;;;4100733;28;20152;-74
2022/02/04 01:49:54;;;;;;;4.57;1.63;;;23.80;59.60;;;;;;4095104;28;20057;-75
2022/02/04 01:52:16;;;;;;;3.33;1.17;;;23.70;59.60;;;;;;4101813;28;20051;-74
2022/02/04 01:54:39;;;;;;;2.85;0.90;;;23.80;59.60;;;;;;4104849;28;20049;-71
2022/02/04 01:57:01;;;;;;;3.65;1.00;;;23.80;59.50;;;;;;4110893;28;20045;-72
2022/02/04 01:59:24;;;;;;;2.33;0.88;;;23.80;59.50;;;;;;4112556;28;22115;-74
2022/02/04 02:01:46;;;;;;;4.90;1.23;;;23.80;59.50;;;;;;4113912;28;20060;-74
2022/02/04 02:04:12;;;;;;;3.85;1.00;;;23.80;59.50;;;;;;4111906;28;20540;-76
2022/02/04 02:06:53;;;;;;;1.98;0.82;;;23.80;59.50;;;;;;4105484;28;20121;-73
2022/02/04 02:09:16;;;;;;;1.33;0.70;;;23.80;59.50;;;;;;4117362;28;20130;-78
2022/02/04 02:11:39;;;;;;;2.57;0.90;;;23.80;59.60;;;;;;4100177;28;21529;-75
2022/02/04 02:14:05;;;;;;;3.55;1.30;;;23.80;59.70;;;;;;4112230;28;20041;-73
2022/02/04 02:48:31;;;;;;;2.28;1.02;;;23.90;60.50;;;;;;4117801;28;20097;-71
2022/02/04 02:58:57;;;;;;;5.75;1.27;;;23.90;60.50;;;;;;4113471;28;20099;-71
2022/02/04 03:01:19;;;;;;;3.63;1.23;;;23.90;60.40;;;;;;4100377;28;20040;-69
2022/02/04 03:03:44;;;;;;;2.20;0.80;;;23.90;60.50;;;;;;4111234;28;20145;-71
2022/02/04 03:06:08;;;;;;;4.07;1.20;;;24.00;61.00;;;;;;4108191;28;20053;-69
2022/02/04 03:08:30;;;;;;;3.25;1.10;;;24.00;61.80;;;;;;4118793;28;20044;-75
2022/02/04 03:10:55;;;;;;;14.43;1.58;;;24.00;61.20;;;;;;4109905;28;20053;-77
2022/02/04 03:13:17;;;;;;;17.23;1.70;;;24.00;61.50;;;;;;4114410;28;20143;-72
2022/02/04 03:15:40;;;;;;;9.00;1.65;;;24.00;61.30;;;;;;4115187;28;20049;-82
2022/02/04 03:18:08;;;;;;;11.93;1.10;;;24.10;61.40;;;;;;4111573;28;20113;-77
2022/02/04 03:20:37;;;;;;;10.45;1.42;;;24.10;61.30;;;;;;4102501;28;20042;-74
2022/02/04 03:22:59;;;;;;;6.47;1.15;;;24.10;61.40;;;;;;4115601;28;20481;-78
2022/02/04 03:25:25;;;;;;;10.57;1.20;;;24.10;61.40;;;;;;4123307;28;20046;-74
2022/02/04 03:27:52;;;;;;;5.85;1.20;;;24.10;61.40;;;;;;4100718;28;20042;-75
2022/02/04 03:32:42;;;;;;;2.70;0.90;;;24.10;61.40;;;;;;4117636;28;20604;-72
2022/02/04 03:35:05;;;;;;;3.67;0.82;;;24.20;61.50;;;;;;4102883;28;21081;-73
2022/02/04 03:37:30;;;;;;;2.75;0.75;;;24.20;61.50;;;;;;4102375;28;20041;-71
2022/02/04 03:39:53;;;;;;;3.60;0.80;;;24.20;61.60;;;;;;4115535;28;21154;-71
2022/02/04 03:42:15;;;;;;;2.80;0.63;;;24.20;61.50;;;;;;4120502;28;20038;-71
2022/02/04 03:44:38;;;;;;;5.03;0.75;;;24.20;61.60;;;;;;4115115;28;20050;-70
2022/02/04 03:47:01;;;;;;;3.65;0.75;;;24.20;61.60;;;;;;4120197;28;20037;-72
2022/02/04 03:49:23;;;;;;;2.20;0.90;;;24.20;61.60;;;;;;4113622;28;20076;-70
2022/02/04 03:51:45;;;;;;;2.40;0.90;;;24.20;61.60;;;;;;4114609;28;20064;-72
2022/02/04 03:54:08;;;;;;;1.65;0.70;;;24.20;61.50;;;;;;4121177;28;20045;-71
2022/02/04 03:56:30;;;;;;;4.05;0.85;;;24.30;61.70;;;;;;4112772;28;20187;-70
2022/02/04 03:58:53;;;;;;;4.15;0.90;;;24.30;62.00;;;;;;4113614;28;20117;-70
2022/02/04 04:01:15;;;;;;;1.88;0.88;;;24.30;61.80;;;;;;4121894;28;20531;-71
2022/02/04 04:03:38;;;;;;;4.57;1.05;;;24.30;61.80;;;;;;4112660;28;20041;-71
2022/02/04 04:06:01;;;;;;;6.72;1.02;;;24.30;61.70;;;;;;4114817;28;20166;-72
2022/02/04 04:08:23;;;;;;;2.75;0.98;;;24.30;61.80;;;;;;4112664;28;21417;-69
2022/02/04 04:10:46;;;;;;;4.53;1.50;;;24.30;62.50;;;;;;4113124;28;20042;-65
2022/02/04 04:13:10;;;;;;;6.20;1.30;;;24.40;61.90;;;;;;4117511;28;20057;-70
2022/02/04 04:15:33;;;;;;;8.57;1.75;;;24.40;61.80;;;;;;4111358;28;20515;-68
2022/02/04 04:17:55;;;;;;;4.93;1.50;;;24.30;61.80;;;;;;4108313;28;20041;-68
2022/02/04 04:20:26;;;;;;;9.65;1.50;;;24.40;62.00;;;;;;4098840;28;20096;-66
2022/02/04 04:22:50;;;;;;;6.63;2.08;;;24.40;62.00;;;;;;4096019;28;22026;-67
2022/02/04 04:25:14;;;;;;;8.48;2.40;;;24.40;61.80;;;;;;4096463;28;20048;-66
2022/02/04 04:27:37;;;;;;;8.82;2.45;;;24.40;61.70;;;;;;4096706;28;21314;-67
2022/02/04 04:29:59;;;;;;;10.77;2.27;;;24.40;61.80;;;;;;4087299;28;20072;-70
2022/02/04 04:32:22;;;;;;;9.88;2.05;;;24.40;61.90;;;;;;4094433;28;20572;-74
2022/02/04 04:34:44;;;;;;;5.13;1.90;;;24.40;61.90;;;;;;4093608;28;21180;-70
2022/02/04 04:37:07;;;;;;;6.55;1.70;;;24.50;62.10;;;;;;4103322;28;20076;-70
2022/02/04 04:39:36;;;;;;;6.50;1.77;;;24.50;62.20;;;;;;4092557;28;20168;-71
2022/02/04 04:42:13;;;;;;;5.07;1.67;;;24.50;62.10;;;;;;4085282;28;20132;-70
2022/02/04 05:29:44;;;;;;;5.80;1.63;;;25.00;58.50;;;;;;4077689;28;21758;-66
2022/02/04 05:32:20;;;;;;;4.63;1.20;;;25.00;58.30;;;;;;4101738;28;20037;-68
2022/02/04 05:34:45;;;;;;;4.03;1.85;;;25.00;58.20;;;;;;4099087;28;20038;-67
2022/02/04 05:37:17;;;;;;;5.18;1.33;;;25.00;58.20;;;;;;4097216;28;20515;-65
2022/02/04 05:40:06;;;;;;;5.72;1.55;;;25.10;58.10;;;;;;4104596;28;21182;-68
2022/02/04 05:42:39;;;;;;;3.33;1.63;;;25.10;57.70;;;;;;4107715;28;21043;-68
2022/02/04 05:45:07;;;;;;;5.15;1.08;;;25.20;57.60;;;;;;4086605;28;20049;-69
2022/02/04 05:47:31;;;;;;;5.65;1.20;;;25.20;57.70;;;;;;4109602;28;20033;-67
2022/02/04 05:52:31;;;;;;;5.13;1.58;;;25.30;57.60;;;;;;4106600;28;20429;-66
2022/02/04 05:55:17;;;;;;;6.47;1.67;;;25.30;57.40;;;;;;4100232;28;20037;-67
2022/02/04 05:57:56;;;;;;;5.63;2.05;;;25.30;57.30;;;;;;4104068;28;20150;-75
2022/02/04 06:00:38;;;;;;;4.47;1.27;;;25.30;57.30;;;;;;4103201;28;20032;-76
2022/02/04 06:22:07;;;;;;;7.65;1.50;;;25.30;57.70;;;;;;4106452;28;20542;-73
2022/02/04 06:23:17;;;;;;;3.40;1.17;;;25.30;57.90;;;;;;4117424;28;20041;-70
2022/02/04 06:25:41;;;;;;;5.60;1.20;;;25.30;57.90;;;;;;4109796;28;21184;-72
2022/02/04 06:28:03;;;;;;;;;;;25.40;58.40;;;;;;4109342;28;20133;-70
2022/02/04 06:30:25;;;;;;;3.00;0.93;;;25.30;58.10;;;;;;4117237;28;19984;-71
2022/02/04 06:32:48;;;;;;;4.57;1.17;;;25.30;58.20;;;;;;4107262;28;20426;-71
2022/02/04 06:35:11;;;;;;;3.53;1.00;;;25.40;58.40;;;;;;4106054;28;20040;-71
2022/02/04 06:37:34;;;;;;;4.77;0.90;;;25.40;58.50;;;;;;4114092;28;20106;-71
2022/02/04 06:39:56;;;;;;;1.83;0.80;;;25.40;58.50;;;;;;4107856;28;20043;-71
2022/02/04 06:42:26;;;;;;;6.97;1.38;;;25.40;58.50;;;;;;4092374;28;20045;-71
2022/02/04 06:44:49;;;;;;;30.75;3.20;;;25.40;58.40;;;;;;4109967;28;20524;-71
2022/02/04 06:47:18;;;;;;;15.38;3.08;;;25.40;58.00;;;;;;4088980;28;20133;-71
2022/02/04 06:49:42;;;;;;;14.63;4.30;;;25.30;57.90;;;;;;4102709;28;20071;-72
2022/02/04 06:52:05;;;;;;;18.90;4.28;;;25.30;57.50;;;;;;4099478;28;20041;-73
2022/02/04 06:54:27;;;;;;;14.15;3.65;;;25.30;57.60;;;;;;4104706;28;20041;-71
2022/02/04 06:56:50;;;;;;;12.02;4.15;;;25.30;57.50;;;;;;4113178;28;20041;-72
2022/02/04 06:59:12;;;;;;;15.80;4.28;;;25.30;57.60;;;;;;4102591;28;20048;-69
2022/02/04 07:01:46;;;;;;;17.17;4.43;;;25.30;57.60;;;;;;4109735;28;20120;-75
2022/02/04 07:04:09;;;;;;;12.57;3.20;;;25.20;57.80;;;;;;4109637;28;20041;-74
2022/02/04 07:06:36;;;;;;;12.05;3.60;;;25.20;58.10;;;;;;4106238;28;20037;-74
2022/02/04 07:11:49;;;;;;;9.35;2.72;;;25.30;58.50;;;;;;4110775;28;20836;-73
2022/02/04 07:22:05;;;;;;;6.05;2.22;;;25.40;58.80;;;;;;4119808;28;20060;-76
2022/02/04 07:24:28;;;;;;;7.53;2.80;;;25.40;58.80;;;;;;4112474;28;20042;-71
2022/02/04 07:26:50;;;;;;;6.45;2.10;;;25.40;58.90;;;;;;4108377;28;20204;-72
2022/02/04 07:29:13;;;;;;;19.70;2.55;;;25.40;58.80;;;;;;4103655;28;20076;-79
2022/02/04 07:31:39;;;;;;;10.23;2.47;;;25.40;58.50;;;;;;4098757;28;20048;-77
2022/02/04 07:34:19;;;;;;;7.80;2.33;;;25.50;58.40;;;;;;4083383;28;20038;-80
2022/02/04 07:41:50;;;;;;;7.80;2.30;;;25.40;57.80;;;;;;4096696;28;20065;-76
2022/02/04 07:44:13;;;;;;;6.15;2.15;;;25.40;57.90;;;;;;4102504;28;20045;-80
2022/02/04 07:46:37;;;;;;;10.73;2.60;;;25.30;57.70;;;;;;4097274;28;20099;-78
2022/02/04 07:49:00;;;;;;;7.78;2.70;;;25.30;57.60;;;;;;4096911;28;20054;-75
2022/02/04 07:51:22;;;;;;;6.17;1.77;;;25.30;57.60;;;;;;4088863;28;20045;-77
2022/02/04 07:53:45;;;;;;;10.80;2.72;;;25.30;57.60;;;;;;4091234;28;20049;-76
2022/02/04 07:56:07;;;;;;;6.57;1.95;;;25.20;57.40;;;;;;4095984;28;20277;-76
2022/02/04 07:58:30;;;;;;;4.78;2.00;;;25.20;57.60;;;;;;4103302;28;20469;-74
2022/02/04 08:00:52;;;;;;;6.13;1.88;;;25.20;57.60;;;;;;4094952;28;20164;-81
2022/02/04 08:05:49;;;;;;;8.10;2.47;;;25.10;57.40;;;;;;4097812;28;20075;-78
2022/02/04 08:08:19;;;;;;;6.65;2.30;;;25.10;57.60;;;;;;4096037;28;20425;-77
2022/02/04 08:11:07;;;;;;;4.57;1.83;;;25.10;57.50;;;;;;4090495;28;20220;-76
2022/02/04 08:13:43;;;;;;;5.15;1.60;;;25.10;57.60;;;;;;4100048;28;20053;-81
2022/02/04 08:16:48;;;;;;;5.55;2.13;;;25.10;57.60;;;;;;4103011;28;20905;-73
2022/02/04 08:29:36;;;;;;;3.58;1.38;;;24.90;57.20;;;;;;4081741;28;20540;-76
2022/02/04 08:32:13;;;;;;;5.15;1.30;;;24.90;57.00;;;;;;4101860;28;20041;-80
2022/02/04 08:48:41;;;;;;;5.25;1.52;;;24.80;57.10;;;;;;4113220;28;20049;-80
2022/02/04 08:50:57;;;;;;;4.07;1.48;;;24.80;57.00;;;;;;4107063;28;20164;-78
2022/02/04 08:56:00;;;;;;;4.57;1.23;;;24.70;57.00;;;;;;4108112;28;20045;-78
2022/02/04 08:58:29;;;;;;;2.97;1.05;;;24.70;57.00;;;;;;4099900;28;20975;-77
2022/02/04 09:03:35;;;;;;;2.17;1.17;;;24.60;57.00;;;;;;4090447;28;20092;-78
2022/02/04 09:06:14;;;;;;;3.95;1.38;;;24.60;56.80;;;;;;4095816;28;20045;-78
2022/02/04 09:08:42;;;;;;;2.88;0.95;;;24.60;56.90;;;;;;4097569;28;20565;-81
2022/02/04 09:11:09;;;;;;;2.70;0.93;;;24.60;57.00;;;;;;4085996;28;20614;-74
2022/02/04 09:19:01;;;;;;;4.10;1.15;;;24.50;56.80;;;;;;4103618;28;20065;-79
2022/02/04 09:24:09;;;;;;;2.88;1.20;;;24.50;56.90;;;;;;4078269;28;20064;-80
2022/02/04 09:26:33;;;;;;;3.17;1.13;;;24.40;56.80;;;;;;4109177;28;20135;-80
2022/02/04 09:28:55;;;;;;;3.33;1.25;;;24.40;57.50;;;;;;4097471;28;20048;-79
2022/02/04 09:31:18;;;;;;;2.88;0.90;;;24.40;57.00;;;;;;4095901;28;20138;-80
2022/02/04 09:33:44;;;;;;;2.60;0.90;;;24.40;56.80;;;;;;4103844;28;20279;-80
2022/02/04 09:36:07;;;;;;;5.18;1.27;;;24.40;56.90;;;;;;4103488;28;20439;-81
2022/02/04 09:38:29;;;;;;;2.27;1.10;;;24.40;56.90;;;;;;4096573;28;20045;-80
2022/02/04 09:40:52;;;;;;;3.05;1.08;;;24.30;56.90;;;;;;4108265;28;20549;-79
2022/02/04 09:43:15;;;;;;;1.73;0.88;;;24.30;57.00;;;;;;4102198;28;21114;-77
2022/02/04 09:45:38;;;;;;;3.88;1.08;;;24.30;56.80;;;;;;4095436;28;20810;-78
2022/02/04 09:48:11;;;;;;;3.05;1.00;;;24.30;56.90;;;;;;4106959;28;20045;-80
2022/02/04 09:50:37;;;;;;;1.73;0.90;;;24.30;57.10;;;;;;4101778;28;20041;-80
2022/02/04 10:18:09;;;;;;;2.65;0.95;;;24.10;57.20;;;;;;4145032;28;20053;-66
2022/02/04 10:20:32;;;;;;;2.05;0.90;;;24.00;57.20;;;;;;4159223;28;20045;-66
2022/02/04 10:22:56;;;;;;;3.42;1.17;;;24.00;57.10;;;;;;4145507;28;20038;-67
2022/02/04 10:25:19;;;;;;;2.92;0.98;;;24.00;57.20;;;;;;4157888;28;20045;-66
2022/02/04 10:27:44;;;;;;;1.05;0.68;;;24.00;57.30;;;;;;4150939;28;20033;-65
2022/02/04 10:30:09;;;;;;;2.15;0.82;;;24.00;57.20;;;;;;4150426;28;20037;-66
2022/02/04 10:32:31;;;;;;;1.95;0.73;;;24.00;57.30;;;;;;4152508;28;20037;-65
2022/02/04 10:35:06;;;;;;;2.08;0.82;;;24.00;57.30;;;;;;4154342;28;20125;-65
2022/02/04 10:37:31;;;;;;;2.72;0.80;;;24.00;57.50;;;;;;4151962;28;20037;-67
2022/02/04 10:48:02;;;;;;;2.50;0.65;;;23.90;57.90;;;;;;4155942;28;19913;-66
2022/02/04 10:53:37;;;;;;;1.77;0.80;;;23.90;57.60;;;;;;4153354;28;20068;-67
2022/02/04 11:01:29;;;;;;;1.75;0.90;;;23.80;58.00;;;;;;4148011;28;19935;-67
2022/02/04 11:03:56;;;;;;;3.90;1.27;;;23.80;57.60;;;;;;4155707;28;20073;-67
2022/02/04 11:06:31;;;;;;;2.97;0.98;;;23.80;57.80;;;;;;4153026;28;20127;-67
2022/02/04 11:09:06;;;;;;;1.83;0.80;;;23.80;57.70;;;;;;4153546;28;21154;-66
2022/02/04 11:34:39;;;;;;;1.50;0.50;;;23.70;58.80;;;;;;4058835;29;20159;-79
2022/02/04 11:57:03;;;;;;;2.15;0.65;;;23.60;58.40;;;;;;4143608;28;20425;-77
2022/02/04 11:59:37;;;;;;;3.00;0.70;;;23.60;58.40;;;;;;4145065;28;20100;-78
2022/02/04 12:02:00;;;;;;;2.72;0.82;;;23.60;58.40;;;;;;4145865;28;20046;-79
2022/02/04 12:04:23;;;;;;;2.78;0.95;;;23.50;58.40;;;;;;4144829;28;20151;-80
2022/02/04 12:06:46;;;;;;;1.83;0.82;;;23.50;58.40;;;;;;4144906;28;20033;-80
2022/02/04 12:09:38;;;;;;;2.63;0.87;;;23.50;58.30;;;;;;4144569;28;20084;-78
2022/02/04 12:12:01;;;;;;;2.47;1.13;;;23.50;58.60;;;;;;4146919;28;20044;-78
2022/02/04 12:14:31;;;;;;;1.80;0.90;;;23.50;58.30;;;;;;4137570;28;20510;-78
2022/02/04 12:17:08;;;;;;;2.13;0.65;;;23.50;58.40;;;;;;4145955;28;20143;-79
2022/02/04 12:19:45;;;;;;;1.65;0.65;;;23.50;58.50;;;;;;4144345;28;20196;-79
2022/02/04 12:22:09;;;;;;;1.58;0.55;;;23.50;58.50;;;;;;4140529;28;20041;-80
2022/02/04 12:24:36;;;;;;;;;;;23.50;58.50;;;;;;4146035;28;20144;-78
2022/02/04 12:27:37;;;;;;;2.90;0.70;;;23.40;58.70;;;;;;4139454;28;19983;-77
2022/02/04 12:30:19;;;;;;;3.17;0.80;;;23.40;58.60;;;;;;4144433;28;20164;-77
2022/02/04 12:32:42;;;;;;;0.95;0.40;;;23.40;58.50;;;;;;4139828;28;20037;-77
2022/02/04 12:35:04;;;;;;;1.40;0.63;;;23.40;58.50;;;;;;4144490;28;20050;-79
2022/02/04 12:37:27;;;;;;;3.83;0.82;;;23.40;58.40;;;;;;4143566;28;20068;-78
2022/02/04 12:39:49;;;;;;;2.28;0.68;;;23.40;58.50;;;;;;4144846;28;20045;-78
2022/02/04 12:42:13;;;;;;;2.88;0.77;;;23.40;58.50;;;;;;4145475;28;20049;-78
2022/02/04 12:44:36;;;;;;;;;;;23.40;58.60;;;;;;4143952;28;20494;-79
2022/02/04 12:47:02;;;;;;;2.28;0.90;;;23.30;58.90;;;;;;4146271;28;19914;-79
2022/02/04 12:49:28;;;;;;;2.25;0.90;;;23.30;58.60;;;;;;4131020;28;20514;-77
2022/02/04 12:54:36;;;;;;;1.73;0.47;;;23.30;58.50;;;;;;4147749;28;20459;-76
2022/02/04 12:59:56;;;;;;;1.40;0.68;;;23.30;58.60;;;;;;4160694;28;20104;-79
2022/02/04 13:02:32;;;;;;;0.80;0.40;;;23.30;58.60;;;;;;4145551;28;20041;-75
2022/02/04 13:10:27;;;;;;;2.78;1.30;;;23.20;58.50;;;;;;4160789;28;20513;-79
2022/02/04 13:13:02;;;;;;;0.95;0.60;;;23.20;58.50;;;;;;4155692;28;20124;-80
2022/02/04 13:15:24;;;;;;;;;;;23.20;58.50;;;;;;4157200;28;20071;-78
2022/02/04 13:17:47;;;;;;;2.25;1.02;;;23.20;58.90;;;;;;4144024;28;20345;-79
2022/02/04 13:20:10;;;;;;;0.88;0.60;;;23.20;59.00;;;;;;4160961;28;20103;-77
2022/02/04 13:22:38;;;;;;;1.95;0.60;;;23.20;58.50;;;;;;4151399;28;20077;-76
2022/02/04 13:25:13;;;;;;;2.15;0.80;;;23.20;58.60;;;;;;4160190;28;20815;-79
2022/02/04 13:27:36;;;;;;;2.22;0.88;;;23.20;58.60;;;;;;4160563;28;20766;-79
2022/02/04 13:30:00;;;;;;;2.28;0.75;;;23.20;58.60;;;;;;4152830;28;20471;-78
2022/02/04 13:32:23;;;;;;;1.75;0.73;;;23.20;58.70;;;;;;4151107;28;20056;-67
2022/02/04 13:34:45;;;;;;;;;;;23.10;58.50;;;;;;4148521;28;20048;-66
2022/02/04 13:37:23;;;;;;;2.80;0.77;;;23.10;58.80;;;;;;4157927;28;19909;-67
2022/02/04 13:39:57;;;;;;;2.10;0.75;;;23.10;58.50;;;;;;4157097;28;20042;-66
2022/02/04 13:42:45;;;;;;;1.63;0.73;;;23.10;58.60;;;;;;4152792;28;20046;-67
2022/02/04 13:45:35;;;;;;;2.22;1.00;;;23.10;58.60;;;;;;4143409;28;20042;-66
2022/02/04 13:48:06;;;;;;;2.60;0.95;;;23.10;58.60;;;;;;4144995;28;20330;-66
2022/02/04 13:50:43;;;;;;;2.00;0.60;;;23.10;58.50;;;;;;4144370;28;20049;-68
2022/02/04 13:55:57;;;;;;;1.45;0.63;;;23.10;59.10;;;;;;4150155;28;20041;-66
2022/02/04 13:58:37;;;;;;;2.55;0.93;;;23.10;59.20;;;;;;4154563;28;20042;-66
2022/02/04 14:01:13;;;;;;;2.55;0.80;;;23.10;58.60;;;;;;4144629;28;20034;-66
2022/02/04 14:03:41;;;;;;;1.25;0.52;;;23.00;58.50;;;;;;4151913;28;20037;-68
2022/02/04 14:06:11;;;;;;;1.88;1.00;;;23.00;58.50;;;;;;4157093;28;20414;-67
2022/02/04 14:08:47;;;;;;;2.47;0.90;;;23.00;58.60;;;;;;4158979;28;20312;-67
2022/02/04 14:11:10;;;;;;;1.42;0.73;;;23.00;58.40;;;;;;4148941;28;20092;-67
2022/02/04 14:13:33;;;;;;;2.83;0.97;;;23.00;58.50;;;;;;4153619;28;20044;-66
2022/02/04 14:15:59;;;;;;;2.88;1.00;;;23.00;58.50;;;;;;4158958;28;20317;-68
2022/02/04 14:18:23;;;;;;;1.30;0.85;;;23.00;58.50;;;;;;4156741;28;20038;-67
2022/02/04 14:20:45;;;;;;;2.13;0.73;;;23.00;58.50;;;;;;4154098;28;20168;-65
2022/02/04 14:23:10;;;;;;;2.47;0.80;;;22.90;58.50;;;;;;4159644;28;20041;-67
2022/02/04 14:25:42;;;;;;;2.55;0.90;;;22.90;58.40;;;;;;4157842;28;20182;-68
2022/02/04 14:28:07;;;;;;;2.60;0.95;;;22.90;58.50;;;;;;4160741;28;20132;-78
2022/02/04 14:30:35;;;;;;;2.72;1.00;;;22.90;58.40;;;;;;4148117;28;20068;-78
2022/02/04 14:34:34;;;;;;;2.35;1.00;;;22.90;58.40;;;;;;4160751;28;20357;-80
2022/02/04 14:36:05;;;;;;;1.55;0.65;;;22.90;58.40;;;;;;4159317;28;20053;-79
2022/02/04 14:52:25;;;;;;;3.00;0.93;;;22.90;58.40;;;;;;4132806;28;20144;-76
2022/02/04 14:58:37;;;;;;;2.13;0.68;;;22.80;58.30;;;;;;4150989;28;20045;-76
2022/02/04 15:00:39;;;;;;;2.45;1.10;;;22.80;58.40;;;;;;4157422;28;20119;-80
2022/02/04 15:05:39;;;;;;;2.30;0.93;;;22.80;58.40;;;;;;4147760;28;20546;-79
2022/02/04 15:08:06;;;;;;;2.13;0.75;;;22.80;58.20;;;;;;4158757;28;20033;-78
2022/02/04 15:10:31;;;;;;;1.70;0.75;;;22.80;58.30;;;;;;4157987;28;20132;-78
2022/02/04 15:12:54;;;;;;;0.55;0.50;;;22.80;58.40;;;;;;4145382;28;20025;-77
2022/02/04 15:15:16;;;;;;;2.45;0.75;;;22.80;58.40;;;;;;4150210;28;20048;-78
2022/02/04 15:17:40;;;;;;;2.17;0.82;;;22.80;58.40;;;;;;4145620;28;20095;-78
2022/02/04 15:20:02;;;;;;;1.92;0.60;;;22.70;58.30;;;;;;4158132;28;20049;-77
2022/02/04 15:22:27;;;;;;;2.13;0.80;;;22.80;58.50;;;;;;4148740;28;20128;-79
2022/02/04 15:24:53;;;;;;;1.13;0.50;;;22.70;59.00;;;;;;4155092;28;20045;-74
2022/02/04 15:27:15;;;;;;;1.45;0.60;;;22.70;58.40;;;;;;4143204;28;20049;-78
2022/02/04 15:29:43;;;;;;;1.98;0.93;;;22.80;58.50;;;;;;4154624;28;20064;-80
2022/02/04 15:32:09;;;;;;;2.15;0.80;;;22.70;58.50;;;;;;4142933;28;20034;-77
2022/02/04 15:34:33;;;;;;;1.15;0.75;;;22.70;58.60;;;;;;4157842;28;20040;-76
2022/02/04 15:36:55;;;;;;;2.15;0.60;;;22.70;58.50;;;;;;4145776;28;20045;-76
2022/02/04 15:39:21;;;;;;;3.72;1.15;;;22.70;58.50;;;;;;4142581;28;20376;-76
2022/02/04 15:41:44;;;;;;;2.17;0.57;;;22.70;58.60;;;;;;4156895;28;20041;-78
2022/02/04 15:44:16;;;;;;;2.33;0.90;;;22.70;58.60;;;;;;4153527;28;20045;-78
2022/02/04 15:46:47;;;;;;;2.83;1.00;;;22.70;58.60;;;;;;4148600;28;20045;-76
2022/02/04 15:54:21;;;;;;;3.10;0.82;;;22.70;58.80;;;;;;4140592;28;20140;-78
2022/02/04 16:04:21;;;;;;;1.92;0.90;;;22.60;58.80;;;;;;4136894;28;20060;-66
2022/02/04 16:06:46;;;;;;;1.13;0.60;;;22.60;58.80;;;;;;4140114;28;20092;-65
2022/02/04 16:09:08;;;;;;;3.00;1.05;;;22.60;58.90;;;;;;4139148;28;20042;-66
2022/02/04 16:16:37;;;;;;;1.92;0.90;;;22.60;58.90;;;;;;4139979;28;20104;-65
2022/02/04 16:19:10;;;;;;;1.23;0.80;;;22.60;59.00;;;;;;4140659;28;20458;-65
2022/02/04 16:28:38;;;;;;;1.38;0.82;;;22.60;59.20;;;;;;4138566;28;20041;-66
2022/02/04 16:29:19;;;;;;;1.95;0.70;;;22.50;59.10;;;;;;4137904;28;20057;-67
2022/02/04 16:31:41;;;;;;;1.85;0.85;;;22.60;59.20;;;;;;4142276;28;20071;-66
2022/02/04 16:34:09;;;;;;;2.15;0.68;;;22.50;59.10;;;;;;4152984;28;20097;-66
2022/02/04 16:36:32;;;;;;;2.83;1.00;;;22.50;59.20;;;;;;4146761;28;20099;-68
2022/02/04 16:38:56;;;;;;;3.38;1.13;;;22.50;59.20;;;;;;4136985;28;20072;-67
2022/02/04 16:41:28;;;;;;;0.93;0.60;;;22.50;59.30;;;;;;4146397;28;20026;-67
2022/02/04 16:43:50;;;;;;;2.55;0.85;;;22.50;59.30;;;;;;4137852;28;20459;-68
2022/02/04 16:46:13;;;;;;;1.65;0.68;;;22.50;59.30;;;;;;4139443;28;20403;-68
2022/02/04 16:48:37;;;;;;;3.70;0.75;;;22.50;59.40;;;;;;4143708;28;20123;-68
2022/02/04 16:51:00;;;;;;;1.98;0.90;;;22.50;59.40;;;;;;4142912;28;20132;-67
2022/02/04 16:53:22;;;;;;;1.35;0.57;;;22.50;60.00;;;;;;4151218;28;20064;-67
2022/02/04 16:55:45;;;;;;;2.13;0.82;;;22.50;59.50;;;;;;4165983;28;20041;-68
2022/02/04 16:58:08;;;;;;;1.58;0.82;;;22.50;59.50;;;;;;4152386;28;20214;-67
2022/02/04 17:00:31;;;;;;;0.98;0.57;;;22.50;59.70;;;;;;4149805;28;20042;-67
2022/02/04 17:02:57;;;;;;;1.15;0.60;;;22.50;59.60;;;;;;4157956;28;20041;-68
2022/02/04 17:05:22;;;;;;;1.27;0.45;;;22.50;59.60;;;;;;4155809;28;20164;-67
2022/02/04 17:07:52;;;;;;;2.15;0.45;;;22.50;59.60;;;;;;4147525;28;20092;-67
2022/02/04 17:10:18;;;;;;;1.50;0.50;;;22.40;59.50;;;;;;4159471;28;20041;-66
2022/02/04 17:12:42;;;;;;;2.30;0.77;;;22.50;59.60;;;;;;4159653;28;20123;-67
2022/02/04 17:15:04;;;;;;;0.95;0.60;;;22.40;59.20;;;;;;4156846;28;20041;-67
2022/02/04 17:17:27;;;;;;;2.05;0.80;;;22.40;59.70;;;;;;4159385;28;20430;-67
2022/02/04 17:19:52;;;;;;;1.67;0.85;;;22.40;59.70;;;;;;4159281;28;20622;-67
2022/02/04 17:22:16;;;;;;;2.92;0.77;;;22.40;59.70;;;;;;4153403;28;20600;-66
2022/02/04 17:24:39;;;;;;;2.50;0.90;;;22.40;59.70;;;;;;4158711;28;20451;-67
2022/02/04 17:27:02;;;;;;;1.95;0.90;;;22.40;59.70;;;;;;4158802;28;20356;-67
2022/02/04 17:29:28;;;;;;;1.58;0.80;;;22.40;59.70;;;;;;4149942;28;20038;-67
2022/02/04 17:31:50;;;;;;;1.05;0.70;;;22.40;59.80;;;;;;4143713;28;20434;-68
2022/02/04 17:34:16;;;;;;;3.15;1.02;;;22.40;59.80;;;;;;4148989;28;20082;-67
2022/02/04 17:36:39;;;;;;;1.30;0.55;;;22.40;59.80;;;;;;4153168;28;20490;-67
2022/02/04 17:39:02;;;;;;;1.50;0.60;;;22.40;59.90;;;;;;4159499;28;20098;-67
2022/02/04 17:41:25;;;;;;;1.05;0.50;;;22.40;60.10;;;;;;4151411;28;20427;-67
2022/02/04 17:43:48;;;;;;;2.78;0.70;;;22.40;59.90;;;;;;4138205;28;20051;-67
2022/02/04 17:46:11;;;;;;;3.13;0.70;;;22.40;59.90;;;;;;4158601;28;20071;-67
2022/02/04 17:49:23;;;;;;;2.63;0.68;;;22.30;59.90;;;;;;4158827;28;20041;-67
2022/02/04 17:53:59;;;;;;;1.50;0.80;;;22.40;60.00;;;;;;4157497;28;20049;-67
2022/02/04 17:56:37;;;;;;;1.10;0.70;;;22.40;60.00;;;;;;4151063;28;20486;-67
2022/02/04 17:59:21;;;;;;;1.02;0.70;;;22.30;60.00;;;;;;4158979;28;20049;-68
2022/02/04 18:09:31;;;;;;;1.08;0.68;;;22.30;60.10;;;;;;4158771;28;20124;-67
2022/02/04 18:11:53;;;;;;;2.58;0.90;;;22.30;60.20;;;;;;4152726;28;20104;-67
2022/02/04 18:14:16;;;;;;;2.03;0.90;;;22.30;60.20;;;;;;4151219;28;20206;-67
2022/02/04 18:16:38;;;;;;;2.22;0.82;;;22.30;60.30;;;;;;4158319;28;20075;-66
2022/02/04 18:19:01;;;;;;;2.28;0.95;;;22.30;60.30;;;;;;4151932;28;20080;-67
2022/02/04 18:21:23;;;;;;;2.58;1.13;;;22.30;60.30;;;;;;4149197;28;20048;-67
2022/02/04 18:23:45;;;;;;;2.28;0.90;;;22.30;60.30;;;;;;4146083;28;20391;-67
2022/02/04 18:26:09;;;;;;;3.65;1.10;;;22.30;60.30;;;;;;4153252;28;20089;-77
2022/02/04 18:28:31;;;;;;;2.87;0.97;;;22.30;60.30;;;;;;4151475;28;20121;-78
2022/02/04 18:30:55;;;;;;;1.92;0.90;;;22.30;60.30;;;;;;4155457;28;20052;-77
2022/02/04 18:33:18;;;;;;;2.97;0.70;;;22.30;60.40;;;;;;4160676;28;20049;-76
2022/02/04 18:35:42;;;;;;;2.15;0.73;;;22.20;60.90;;;;;;4156124;28;20118;-75
2022/02/04 18:45:25;;;;;;;2.63;0.88;;;22.20;61.00;;;;;;4162502;28;20061;-78
2022/02/04 18:53:09;;;;;;;2.60;0.90;;;22.20;60.50;;;;;;4159809;28;20049;-65
2022/02/04 18:58:09;;;;;;;2.83;0.80;;;22.20;60.40;;;;;;4155088;28;20120;-68
2022/02/04 19:00:33;;;;;;;3.63;1.00;;;22.20;60.40;;;;;;4157794;28;20045;-66
2022/02/04 19:02:58;;;;;;;2.88;1.00;;;22.20;60.40;;;;;;4147726;28;20037;-68
2022/02/04 19:05:26;;;;;;;2.13;0.80;;;22.20;60.40;;;;;;4148826;28;20032;-67
2022/02/04 19:08:13;;;;;;;2.85;1.00;;;22.10;60.30;;;;;;4157859;28;20029;-67
2022/02/04 19:10:34;;;;;;;3.67;1.02;;;22.10;60.30;;;;;;4157947;28;20045;-67